sensor_id;sensor_type;location;lat;lon;timestamp;P1;durP1;ratioP1;P2;durP2;ratioP2
36291;SDS011;22327;51.208;6.418;2022-07-29T00:01:06;3.30;;;1.08;;
36291;SDS011;22327;51.208;6.418;2022-07-29T00:03:32;3.10;;;1.25;;
36291;SDS011;22327;51.208;6.418;2022-07-29T00:05:57;4.40;;;1.40;;
36291;SDS011;22327;51.208;6.418;2022-07-29T00:08:23;4.55;;;1.20;;
36291;SDS011;22327;51.208;6.418;2022-07-29T00:10:48;3.35;;;1.20;;
36291;SDS011;22327;51.208;6.418;2022-07-29T00:13:14;4.30;;;1.30;;
36291;SDS011;22327;51.208;6.418;2022-07-29T00:15:40;7.10;;;1.40;;
36291;SDS011;22327;51.208;6.418;2022-07-29T00:18:06;6.25;;;1.60;;
36291;SDS011;22327;51.208;6.418;2022-07-29T00:20:31;4.20;;;1.65;;
36291;SDS011;22327;51.208;6.418;2022-07-29T00:22:57;2.55;;;1.40;;
36291;SDS011;22327;51.208;6.418;2022-07-29T00:25:23;1.88;;;1.38;;
36291;SDS011;22327;51.208;6.418;2022-07-29T00:27:48;11.07;;;1.67;;
36291;SDS011;22327;51.208;6.418;2022-07-29T00:30:14;3.47;;;1.30;;
36291;SDS011;22327;51.208;6.418;2022-07-29T00:32:39;2.92;;;1.50;;
36291;SDS011;22327;51.208;6.418;2022-07-29T00:35:05;2.70;;;1.33;;
36291;SDS011;22327;51.208;6.418;2022-07-29T00:37:50;2.45;;;1.30;;
36291;SDS011;22327;51.208;6.418;2022-07-29T00:40:16;3.97;;;1.30;;
36291;SDS011;22327;51.208;6.418;2022-07-29T00:42:43;2.85;;;1.50;;
36291;SDS011;22327;51.208;6.418;2022-07-29T00:45:13;5.40;;;1.50;;
36291;SDS011;22327;51.208;6.418;2022-07-29T00:47:39;3.75;;;1.27;;
36291;SDS011;22327;51.208;6.418;2022-07-29T00:50:06;3.08;;;1.20;;
36291;SDS011;22327;51.208;6.418;2022-07-29T00:52:33;4.88;;;1.63;;
36291;SDS011;22327;51.208;6.418;2022-07-29T00:55:02;6.40;;;1.90;;
36291;SDS011;22327;51.208;6.418;2022-07-29T00:57:29;2.90;;;1.10;;
36291;SDS011;22327;51.208;6.418;2022-07-29T00:59:54;4.55;;;1.40;;
36291;SDS011;22327;51.208;6.418;2022-07-29T01:02:20;6.70;;;1.63;;
36291;SDS011;22327;51.208;6.418;2022-07-29T01:04:46;4.75;;;1.15;;
36291;SDS011;22327;51.208;6.418;2022-07-29T01:07:12;4.10;;;1.35;;
36291;SDS011;22327;51.208;6.418;2022-07-29T01:09:38;3.10;;;1.50;;
36291;SDS011;22327;51.208;6.418;2022-07-29T01:12:04;4.63;;;1.70;;
36291;SDS011;22327;51.208;6.418;2022-07-29T01:14:30;5.85;;;1.50;;
36291;SDS011;22327;51.208;6.418;2022-07-29T01:17:14;4.25;;;1.42;;
36291;SDS011;22327;51.208;6.418;2022-07-29T01:28:38;6.90;;;1.70;;
36291;SDS011;22327;51.208;6.418;2022-07-29T01:31:25;3.60;;;1.50;;
36291;SDS011;22327;51.208;6.418;2022-07-29T01:34:10;2.58;;;1.80;;
36291;SDS011;22327;51.208;6.418;2022-07-29T01:36:45;4.78;;;1.30;;
36291;SDS011;22327;51.208;6.418;2022-07-29T01:39:18;5.40;;;1.45;;
36291;SDS011;22327;51.208;6.418;2022-07-29T01:42:14;2.67;;;1.77;;
36291;SDS011;22327;51.208;6.418;2022-07-29T01:47:23;3.65;;;1.60;;
36291;SDS011;22327;51.208;6.418;2022-07-29T01:49:56;3.05;;;1.42;;
36291;SDS011;22327;51.208;6.418;2022-07-29T01:53:06;4.85;;;1.48;;
36291;SDS011;22327;51.208;6.418;2022-07-29T01:55:17;3.28;;;1.20;;
36291;SDS011;22327;51.208;6.418;2022-07-29T01:57:47;2.92;;;1.10;;
36291;SDS011;22327;51.208;6.418;2022-07-29T02:00:14;4.57;;;1.10;;
36291;SDS011;22327;51.208;6.418;2022-07-29T02:02:42;4.88;;;1.40;;
36291;SDS011;22327;51.208;6.418;2022-07-29T02:05:11;2.90;;;0.98;;
36291;SDS011;22327;51.208;6.418;2022-07-29T02:07:40;1.02;;;0.90;;
36291;SDS011;22327;51.208;6.418;2022-07-29T02:10:07;2.47;;;0.70;;
36291;SDS011;22327;51.208;6.418;2022-07-29T02:12:35;6.82;;;0.90;;
36291;SDS011;22327;51.208;6.418;2022-07-29T02:15:02;2.15;;;0.77;;
36291;SDS011;22327;51.208;6.418;2022-07-29T02:17:33;2.15;;;0.90;;
36291;SDS011;22327;51.208;6.418;2022-07-29T02:20:05;2.17;;;0.85;;
36291;SDS011;22327;51.208;6.418;2022-07-29T02:22:33;3.00;;;0.90;;
36291;SDS011;22327;51.208;6.418;2022-07-29T02:25:02;2.08;;;1.23;;
36291;SDS011;22327;51.208;6.418;2022-07-29T02:27:29;2.05;;;1.02;;
36291;SDS011;22327;51.208;6.418;2022-07-29T02:29:56;0.98;;;0.80;;
36291;SDS011;22327;51.208;6.418;2022-07-29T02:32:25;2.35;;;0.90;;
36291;SDS011;22327;51.208;6.418;2022-07-29T02:34:52;3.63;;;1.00;;
36291;SDS011;22327;51.208;6.418;2022-07-29T02:37:18;2.45;;;1.00;;
36291;SDS011;22327;51.208;6.418;2022-07-29T02:39:45;4.60;;;1.38;;
36291;SDS011;22327;51.208;6.418;2022-07-29T02:42:15;2.45;;;1.20;;
36291;SDS011;22327;51.208;6.418;2022-07-29T02:44:42;4.40;;;1.30;;
36291;SDS011;22327;51.208;6.418;2022-07-29T02:47:24;4.15;;;1.17;;
36291;SDS011;22327;51.208;6.418;2022-07-29T02:50:06;5.47;;;1.55;;
36291;SDS011;22327;51.208;6.418;2022-07-29T02:52:47;3.63;;;1.20;;
36291;SDS011;22327;51.208;6.418;2022-07-29T02:55:30;5.65;;;1.73;;
36291;SDS011;22327;51.208;6.418;2022-07-29T02:58:02;3.47;;;1.40;;
36291;SDS011;22327;51.208;6.418;2022-07-29T03:00:35;2.67;;;1.20;;
36291;SDS011;22327;51.208;6.418;2022-07-29T03:03:03;7.38;;;1.80;;
36291;SDS011;22327;51.208;6.418;2022-07-29T03:05:32;5.72;;;2.20;;
36291;SDS011;22327;51.208;6.418;2022-07-29T03:08:04;6.43;;;2.22;;
36291;SDS011;22327;51.208;6.418;2022-07-29T03:10:31;5.32;;;1.85;;
36291;SDS011;22327;51.208;6.418;2022-07-29T03:12:57;6.93;;;2.53;;
36291;SDS011;22327;51.208;6.418;2022-07-29T03:15:23;3.90;;;1.98;;
36291;SDS011;22327;51.208;6.418;2022-07-29T03:17:50;3.13;;;2.08;;
36291;SDS011;22327;51.208;6.418;2022-07-29T03:20:17;2.33;;;1.90;;
36291;SDS011;22327;51.208;6.418;2022-07-29T03:22:43;5.75;;;2.20;;
36291;SDS011;22327;51.208;6.418;2022-07-29T03:25:15;4.30;;;2.15;;
36291;SDS011;22327;51.208;6.418;2022-07-29T03:27:42;9.38;;;2.42;;
36291;SDS011;22327;51.208;6.418;2022-07-29T03:30:08;3.90;;;2.00;;
36291;SDS011;22327;51.208;6.418;2022-07-29T03:32:35;5.05;;;2.42;;
36291;SDS011;22327;51.208;6.418;2022-07-29T03:35:01;5.90;;;2.63;;
36291;SDS011;22327;51.208;6.418;2022-07-29T03:37:28;4.78;;;3.10;;
36291;SDS011;22327;51.208;6.418;2022-07-29T03:39:55;4.47;;;2.47;;
36291;SDS011;22327;51.208;6.418;2022-07-29T03:42:23;4.63;;;2.60;;
36291;SDS011;22327;51.208;6.418;2022-07-29T03:44:51;5.43;;;3.10;;
36291;SDS011;22327;51.208;6.418;2022-07-29T03:47:20;6.65;;;3.13;;
36291;SDS011;22327;51.208;6.418;2022-07-29T03:49:50;5.60;;;2.58;;
36291;SDS011;22327;51.208;6.418;2022-07-29T03:52:18;6.00;;;2.90;;
36291;SDS011;22327;51.208;6.418;2022-07-29T03:54:45;6.32;;;2.78;;
36291;SDS011;22327;51.208;6.418;2022-07-29T03:57:11;6.85;;;2.65;;
36291;SDS011;22327;51.208;6.418;2022-07-29T03:59:37;7.00;;;2.40;;
36291;SDS011;22327;51.208;6.418;2022-07-29T04:02:04;2.55;;;2.30;;
36291;SDS011;22327;51.208;6.418;2022-07-29T04:04:36;6.20;;;3.95;;
36291;SDS011;22327;51.208;6.418;2022-07-29T04:07:02;4.43;;;2.58;;
36291;SDS011;22327;51.208;6.418;2022-07-29T04:09:28;6.65;;;3.60;;
36291;SDS011;22327;51.208;6.418;2022-07-29T04:11:54;4.97;;;3.05;;
36291;SDS011;22327;51.208;6.418;2022-07-29T04:14:20;9.32;;;3.03;;
36291;SDS011;22327;51.208;6.418;2022-07-29T04:16:45;3.78;;;2.50;;
36291;SDS011;22327;51.208;6.418;2022-07-29T04:19:11;5.65;;;2.50;;
36291;SDS011;22327;51.208;6.418;2022-07-29T04:21:40;3.38;;;3.03;;
36291;SDS011;22327;51.208;6.418;2022-07-29T04:24:06;5.22;;;3.15;;
36291;SDS011;22327;51.208;6.418;2022-07-29T04:26:33;6.70;;;3.17;;
36291;SDS011;22327;51.208;6.418;2022-07-29T04:28:58;6.05;;;2.92;;
36291;SDS011;22327;51.208;6.418;2022-07-29T04:31:24;7.10;;;3.50;;
36291;SDS011;22327;51.208;6.418;2022-07-29T04:33:49;5.85;;;3.30;;
36291;SDS011;22327;51.208;6.418;2022-07-29T04:36:15;3.80;;;3.00;;
36291;SDS011;22327;51.208;6.418;2022-07-29T04:38:41;5.57;;;3.13;;
36291;SDS011;22327;51.208;6.418;2022-07-29T04:41:06;5.20;;;3.30;;
36291;SDS011;22327;51.208;6.418;2022-07-29T04:43:33;3.97;;;2.80;;
36291;SDS011;22327;51.208;6.418;2022-07-29T04:45:59;5.20;;;3.22;;
36291;SDS011;22327;51.208;6.418;2022-07-29T04:48:25;5.65;;;3.30;;
36291;SDS011;22327;51.208;6.418;2022-07-29T04:50:51;4.28;;;3.17;;
36291;SDS011;22327;51.208;6.418;2022-07-29T04:53:17;5.32;;;3.05;;
36291;SDS011;22327;51.208;6.418;2022-07-29T04:55:43;4.88;;;3.20;;
36291;SDS011;22327;51.208;6.418;2022-07-29T04:58:09;7.82;;;3.47;;
36291;SDS011;22327;51.208;6.418;2022-07-29T05:00:35;4.60;;;3.40;;
36291;SDS011;22327;51.208;6.418;2022-07-29T05:03:01;5.75;;;3.30;;
36291;SDS011;22327;51.208;6.418;2022-07-29T05:05:27;6.40;;;3.83;;
36291;SDS011;22327;51.208;6.418;2022-07-29T05:07:53;4.72;;;3.25;;
36291;SDS011;22327;51.208;6.418;2022-07-29T05:10:18;6.80;;;3.72;;
36291;SDS011;22327;51.208;6.418;2022-07-29T05:12:44;4.97;;;3.40;;
36291;SDS011;22327;51.208;6.418;2022-07-29T05:15:10;5.97;;;3.50;;
36291;SDS011;22327;51.208;6.418;2022-07-29T05:17:35;5.95;;;3.60;;
36291;SDS011;22327;51.208;6.418;2022-07-29T05:20:01;5.85;;;3.35;;
36291;SDS011;22327;51.208;6.418;2022-07-29T05:22:27;5.88;;;3.47;;
36291;SDS011;22327;51.208;6.418;2022-07-29T05:24:52;7.28;;;3.70;;
36291;SDS011;22327;51.208;6.418;2022-07-29T05:27:18;7.22;;;3.65;;
36291;SDS011;22327;51.208;6.418;2022-07-29T05:29:43;5.82;;;3.70;;
36291;SDS011;22327;51.208;6.418;2022-07-29T05:32:09;5.88;;;3.70;;
36291;SDS011;22327;51.208;6.418;2022-07-29T05:34:34;7.32;;;4.20;;
36291;SDS011;22327;51.208;6.418;2022-07-29T05:37:00;6.72;;;4.10;;
36291;SDS011;22327;51.208;6.418;2022-07-29T05:39:26;7.07;;;3.90;;
36291;SDS011;22327;51.208;6.418;2022-07-29T05:41:51;5.80;;;3.95;;
36291;SDS011;22327;51.208;6.418;2022-07-29T05:44:17;4.38;;;3.95;;
36291;SDS011;22327;51.208;6.418;2022-07-29T05:46:42;9.30;;;4.00;;
36291;SDS011;22327;51.208;6.418;2022-07-29T05:49:08;8.45;;;4.60;;
36291;SDS011;22327;51.208;6.418;2022-07-29T05:51:34;5.78;;;3.90;;
36291;SDS011;22327;51.208;6.418;2022-07-29T05:53:59;6.30;;;3.78;;
36291;SDS011;22327;51.208;6.418;2022-07-29T05:56:25;10.20;;;4.70;;
36291;SDS011;22327;51.208;6.418;2022-07-29T05:58:51;8.93;;;4.32;;
36291;SDS011;22327;51.208;6.418;2022-07-29T06:01:16;8.02;;;4.93;;
36291;SDS011;22327;51.208;6.418;2022-07-29T06:03:42;5.78;;;4.68;;
36291;SDS011;22327;51.208;6.418;2022-07-29T06:06:08;7.05;;;4.82;;
36291;SDS011;22327;51.208;6.418;2022-07-29T06:08:34;6.00;;;4.30;;
36291;SDS011;22327;51.208;6.418;2022-07-29T06:11:01;6.28;;;4.55;;
36291;SDS011;22327;51.208;6.418;2022-07-29T06:13:27;8.90;;;4.65;;
36291;SDS011;22327;51.208;6.418;2022-07-29T06:15:52;5.70;;;3.85;;
36291;SDS011;22327;51.208;6.418;2022-07-29T06:18:18;8.40;;;3.92;;
36291;SDS011;22327;51.208;6.418;2022-07-29T06:20:45;6.10;;;3.90;;
36291;SDS011;22327;51.208;6.418;2022-07-29T06:23:11;6.80;;;4.10;;
36291;SDS011;22327;51.208;6.418;2022-07-29T06:25:37;7.93;;;3.95;;
36291;SDS011;22327;51.208;6.418;2022-07-29T06:28:04;6.78;;;3.92;;
36291;SDS011;22327;51.208;6.418;2022-07-29T06:30:30;4.38;;;3.67;;
36291;SDS011;22327;51.208;6.418;2022-07-29T06:32:55;8.95;;;4.50;;
36291;SDS011;22327;51.208;6.418;2022-07-29T06:35:21;5.72;;;4.38;;
36291;SDS011;22327;51.208;6.418;2022-07-29T06:37:47;5.25;;;4.20;;
36291;SDS011;22327;51.208;6.418;2022-07-29T06:40:12;5.40;;;3.78;;
36291;SDS011;22327;51.208;6.418;2022-07-29T06:42:56;6.60;;;4.20;;
36291;SDS011;22327;51.208;6.418;2022-07-29T06:45:22;7.55;;;4.43;;
36291;SDS011;22327;51.208;6.418;2022-07-29T06:47:47;7.32;;;4.43;;
36291;SDS011;22327;51.208;6.418;2022-07-29T06:50:14;7.28;;;4.10;;
36291;SDS011;22327;51.208;6.418;2022-07-29T06:52:40;5.85;;;4.90;;
36291;SDS011;22327;51.208;6.418;2022-07-29T06:55:07;8.27;;;5.13;;
36291;SDS011;22327;51.208;6.418;2022-07-29T06:57:33;7.15;;;4.75;;
36291;SDS011;22327;51.208;6.418;2022-07-29T06:59:59;8.05;;;4.82;;
36291;SDS011;22327;51.208;6.418;2022-07-29T07:02:25;9.15;;;6.03;;
36291;SDS011;22327;51.208;6.418;2022-07-29T07:04:50;9.20;;;4.70;;
36291;SDS011;22327;51.208;6.418;2022-07-29T07:07:16;9.13;;;5.10;;
36291;SDS011;22327;51.208;6.418;2022-07-29T07:09:42;8.60;;;4.78;;
36291;SDS011;22327;51.208;6.418;2022-07-29T07:12:08;8.43;;;5.80;;
36291;SDS011;22327;51.208;6.418;2022-07-29T07:14:34;8.10;;;5.70;;
36291;SDS011;22327;51.208;6.418;2022-07-29T07:16:59;9.82;;;5.65;;
36291;SDS011;22327;51.208;6.418;2022-07-29T07:19:25;9.45;;;6.50;;
36291;SDS011;22327;51.208;6.418;2022-07-29T07:21:53;8.85;;;5.60;;
36291;SDS011;22327;51.208;6.418;2022-07-29T07:24:19;9.32;;;6.13;;
36291;SDS011;22327;51.208;6.418;2022-07-29T07:26:45;8.38;;;5.35;;
36291;SDS011;22327;51.208;6.418;2022-07-29T07:29:10;7.85;;;5.70;;
36291;SDS011;22327;51.208;6.418;2022-07-29T07:31:36;12.45;;;6.18;;
36291;SDS011;22327;51.208;6.418;2022-07-29T07:34:02;7.68;;;6.28;;
36291;SDS011;22327;51.208;6.418;2022-07-29T07:36:28;9.55;;;5.57;;
36291;SDS011;22327;51.208;6.418;2022-07-29T07:38:54;10.63;;;6.40;;
36291;SDS011;22327;51.208;6.418;2022-07-29T07:41:20;8.55;;;6.18;;
36291;SDS011;22327;51.208;6.418;2022-07-29T07:43:45;7.93;;;6.18;;
36291;SDS011;22327;51.208;6.418;2022-07-29T07:46:11;8.88;;;4.63;;
36291;SDS011;22327;51.208;6.418;2022-07-29T07:48:37;7.28;;;5.10;;
36291;SDS011;22327;51.208;6.418;2022-07-29T07:51:02;6.50;;;4.82;;
36291;SDS011;22327;51.208;6.418;2022-07-29T07:53:28;8.90;;;4.57;;
36291;SDS011;22327;51.208;6.418;2022-07-29T07:55:54;6.18;;;4.63;;
36291;SDS011;22327;51.208;6.418;2022-07-29T07:58:20;11.02;;;5.47;;
36291;SDS011;22327;51.208;6.418;2022-07-29T08:00:46;7.82;;;4.13;;
36291;SDS011;22327;51.208;6.418;2022-07-29T08:03:12;6.90;;;4.60;;
36291;SDS011;22327;51.208;6.418;2022-07-29T08:05:38;5.82;;;4.35;;
36291;SDS011;22327;51.208;6.418;2022-07-29T08:08:04;7.55;;;4.40;;
36291;SDS011;22327;51.208;6.418;2022-07-29T08:10:30;6.07;;;3.92;;
36291;SDS011;22327;51.208;6.418;2022-07-29T08:13:14;7.15;;;4.10;;
36291;SDS011;22327;51.208;6.418;2022-07-29T08:15:40;5.63;;;3.60;;
36291;SDS011;22327;51.208;6.418;2022-07-29T08:18:07;6.25;;;4.03;;
36291;SDS011;22327;51.208;6.418;2022-07-29T08:20:33;6.25;;;3.63;;
36291;SDS011;22327;51.208;6.418;2022-07-29T08:23:00;4.20;;;3.55;;
36291;SDS011;22327;51.208;6.418;2022-07-29T08:25:26;8.65;;;3.83;;
36291;SDS011;22327;51.208;6.418;2022-07-29T08:27:52;6.75;;;4.15;;
36291;SDS011;22327;51.208;6.418;2022-07-29T08:30:17;7.50;;;3.97;;
36291;SDS011;22327;51.208;6.418;2022-07-29T08:32:43;6.32;;;3.67;;
36291;SDS011;22327;51.208;6.418;2022-07-29T08:35:09;7.93;;;3.70;;
36291;SDS011;22327;51.208;6.418;2022-07-29T08:37:35;7.43;;;4.38;;
36291;SDS011;22327;51.208;6.418;2022-07-29T08:40:00;8.27;;;4.55;;
36291;SDS011;22327;51.208;6.418;2022-07-29T08:42:26;8.40;;;4.65;;
36291;SDS011;22327;51.208;6.418;2022-07-29T08:44:51;8.07;;;5.00;;
36291;SDS011;22327;51.208;6.418;2022-07-29T08:47:18;9.43;;;4.30;;
36291;SDS011;22327;51.208;6.418;2022-07-29T08:49:44;8.48;;;4.20;;
36291;SDS011;22327;51.208;6.418;2022-07-29T08:52:12;8.77;;;4.70;;
36291;SDS011;22327;51.208;6.418;2022-07-29T08:54:39;6.72;;;4.43;;
36291;SDS011;22327;51.208;6.418;2022-07-29T08:57:07;7.57;;;4.75;;
36291;SDS011;22327;51.208;6.418;2022-07-29T08:59:37;10.48;;;5.10;;
36291;SDS011;22327;51.208;6.418;2022-07-29T09:02:07;6.10;;;4.38;;
36291;SDS011;22327;51.208;6.418;2022-07-29T09:04:40;7.63;;;5.22;;
36291;SDS011;22327;51.208;6.418;2022-07-29T09:07:06;5.60;;;4.70;;
36291;SDS011;22327;51.208;6.418;2022-07-29T09:09:33;7.80;;;5.13;;
36291;SDS011;22327;51.208;6.418;2022-07-29T09:11:58;9.63;;;4.03;;
36291;SDS011;22327;51.208;6.418;2022-07-29T09:14:24;6.68;;;4.53;;
36291;SDS011;22327;51.208;6.418;2022-07-29T09:16:54;6.32;;;4.38;;
36291;SDS011;22327;51.208;6.418;2022-07-29T09:21:49;6.53;;;3.85;;
36291;SDS011;22327;51.208;6.418;2022-07-29T09:24:25;8.80;;;3.85;;
36291;SDS011;22327;51.208;6.418;2022-07-29T09:26:52;6.10;;;3.13;;
36291;SDS011;22327;51.208;6.418;2022-07-29T09:29:18;4.65;;;3.28;;
36291;SDS011;22327;51.208;6.418;2022-07-29T09:31:47;5.45;;;3.28;;
36291;SDS011;22327;51.208;6.418;2022-07-29T09:34:15;6.45;;;3.60;;
36291;SDS011;22327;51.208;6.418;2022-07-29T09:36:48;6.07;;;3.30;;
36291;SDS011;22327;51.208;6.418;2022-07-29T09:39:17;5.53;;;3.17;;
36291;SDS011;22327;51.208;6.418;2022-07-29T09:42:02;4.68;;;3.28;;
36291;SDS011;22327;51.208;6.418;2022-07-29T09:44:43;4.90;;;2.78;;
36291;SDS011;22327;51.208;6.418;2022-07-29T09:47:17;6.10;;;3.22;;
36291;SDS011;22327;51.208;6.418;2022-07-29T09:52:25;2.78;;;2.42;;
36291;SDS011;22327;51.208;6.418;2022-07-29T09:54:52;5.72;;;2.92;;
36291;SDS011;22327;51.208;6.418;2022-07-29T09:57:21;6.63;;;3.00;;
36291;SDS011;22327;51.208;6.418;2022-07-29T10:02:40;5.90;;;3.42;;
36291;SDS011;22327;51.208;6.418;2022-07-29T10:05:21;5.00;;;2.70;;
36291;SDS011;22327;51.208;6.418;2022-07-29T10:07:52;3.20;;;2.47;;
36291;SDS011;22327;51.208;6.418;2022-07-29T10:10:27;6.47;;;2.60;;
36291;SDS011;22327;51.208;6.418;2022-07-29T10:12:55;4.15;;;2.83;;
36291;SDS011;22327;51.208;6.418;2022-07-29T10:15:25;5.65;;;2.33;;
36291;SDS011;22327;51.208;6.418;2022-07-29T10:17:53;3.53;;;2.75;;
36291;SDS011;22327;51.208;6.418;2022-07-29T10:20:20;5.35;;;2.30;;
36291;SDS011;22327;51.208;6.418;2022-07-29T10:22:47;3.88;;;3.00;;
36291;SDS011;22327;51.208;6.418;2022-07-29T10:25:14;4.57;;;2.55;;
36291;SDS011;22327;51.208;6.418;2022-07-29T10:27:41;4.13;;;2.70;;
36291;SDS011;22327;51.208;6.418;2022-07-29T10:30:07;6.15;;;2.92;;
36291;SDS011;22327;51.208;6.418;2022-07-29T10:40:30;3.97;;;2.70;;
36291;SDS011;22327;51.208;6.418;2022-07-29T10:43:28;4.20;;;2.22;;
36291;SDS011;22327;51.208;6.418;2022-07-29T10:45:58;5.45;;;2.72;;
36291;SDS011;22327;51.208;6.418;2022-07-29T10:48:25;4.65;;;2.95;;
36291;SDS011;22327;51.208;6.418;2022-07-29T10:50:52;8.23;;;3.42;;
36291;SDS011;22327;51.208;6.418;2022-07-29T10:53:19;5.20;;;3.10;;
36291;SDS011;22327;51.208;6.418;2022-07-29T10:55:45;7.13;;;3.25;;
36291;SDS011;22327;51.208;6.418;2022-07-29T10:58:22;4.65;;;2.60;;
36291;SDS011;22327;51.208;6.418;2022-07-29T11:00:49;3.78;;;2.60;;
36291;SDS011;22327;51.208;6.418;2022-07-29T11:03:58;5.32;;;2.90;;
36291;SDS011;22327;51.208;6.418;2022-07-29T11:06:05;5.80;;;3.65;;
36291;SDS011;22327;51.208;6.418;2022-07-29T11:08:31;3.58;;;2.75;;
36291;SDS011;22327;51.208;6.418;2022-07-29T11:16:12;6.10;;;3.25;;
36291;SDS011;22327;51.208;6.418;2022-07-29T11:21:36;7.63;;;3.38;;
36291;SDS011;22327;51.208;6.418;2022-07-29T11:24:13;6.32;;;3.10;;
36291;SDS011;22327;51.208;6.418;2022-07-29T11:26:39;5.97;;;2.83;;
36291;SDS011;22327;51.208;6.418;2022-07-29T11:29:20;7.80;;;3.78;;
36291;SDS011;22327;51.208;6.418;2022-07-29T11:31:50;6.18;;;3.33;;
36291;SDS011;22327;51.208;6.418;2022-07-29T11:39:31;5.82;;;3.15;;
36291;SDS011;22327;51.208;6.418;2022-07-29T11:44:58;3.53;;;3.15;;
36291;SDS011;22327;51.208;6.418;2022-07-29T11:47:30;6.70;;;3.08;;
36291;SDS011;22327;51.208;6.418;2022-07-29T11:49:57;6.63;;;3.30;;
36291;SDS011;22327;51.208;6.418;2022-07-29T11:52:23;4.70;;;2.80;;
36291;SDS011;22327;51.208;6.418;2022-07-29T11:55:03;5.32;;;2.70;;
36291;SDS011;22327;51.208;6.418;2022-07-29T11:57:30;7.57;;;2.60;;
36291;SDS011;22327;51.208;6.418;2022-07-29T11:59:56;7.70;;;3.20;;
36291;SDS011;22327;51.208;6.418;2022-07-29T12:02:23;5.63;;;3.20;;
36291;SDS011;22327;51.208;6.418;2022-07-29T12:04:53;8.15;;;3.38;;
36291;SDS011;22327;51.208;6.418;2022-07-29T12:07:32;6.35;;;2.80;;
36291;SDS011;22327;51.208;6.418;2022-07-29T12:09:59;6.80;;;3.03;;
36291;SDS011;22327;51.208;6.418;2022-07-29T12:12:26;4.22;;;2.30;;
36291;SDS011;22327;51.208;6.418;2022-07-29T12:14:52;5.40;;;2.95;;
36291;SDS011;22327;51.208;6.418;2022-07-29T12:17:26;6.72;;;3.10;;
36291;SDS011;22327;51.208;6.418;2022-07-29T12:19:52;4.28;;;3.05;;
36291;SDS011;22327;51.208;6.418;2022-07-29T12:22:28;6.15;;;3.30;;
36291;SDS011;22327;51.208;6.418;2022-07-29T12:25:00;6.05;;;3.45;;
36291;SDS011;22327;51.208;6.418;2022-07-29T12:27:27;4.78;;;3.25;;
36291;SDS011;22327;51.208;6.418;2022-07-29T12:29:56;4.45;;;2.80;;
36291;SDS011;22327;51.208;6.418;2022-07-29T12:32:22;5.68;;;2.67;;
36291;SDS011;22327;51.208;6.418;2022-07-29T12:34:48;5.47;;;2.75;;
36291;SDS011;22327;51.208;6.418;2022-07-29T12:37:15;5.63;;;3.00;;
36291;SDS011;22327;51.208;6.418;2022-07-29T12:39:41;4.63;;;2.70;;
36291;SDS011;22327;51.208;6.418;2022-07-29T12:42:11;3.50;;;3.10;;
36291;SDS011;22327;51.208;6.418;2022-07-29T12:44:44;4.78;;;2.90;;
36291;SDS011;22327;51.208;6.418;2022-07-29T12:47:14;4.30;;;2.45;;
36291;SDS011;22327;51.208;6.418;2022-07-29T12:49:40;4.00;;;2.50;;
36291;SDS011;22327;51.208;6.418;2022-07-29T12:54:54;3.80;;;2.88;;
36291;SDS011;22327;51.208;6.418;2022-07-29T12:57:20;6.07;;;3.00;;
36291;SDS011;22327;51.208;6.418;2022-07-29T12:59:58;5.07;;;3.22;;
36291;SDS011;22327;51.208;6.418;2022-07-29T13:02:36;3.85;;;2.17;;
36291;SDS011;22327;51.208;6.418;2022-07-29T13:05:02;4.63;;;2.55;;
36291;SDS011;22327;51.208;6.418;2022-07-29T13:07:29;3.38;;;2.20;;
36291;SDS011;22327;51.208;6.418;2022-07-29T13:10:14;4.88;;;2.50;;
36291;SDS011;22327;51.208;6.418;2022-07-29T13:15:29;3.17;;;2.53;;
36291;SDS011;22327;51.208;6.418;2022-07-29T13:17:55;5.13;;;2.67;;
36291;SDS011;22327;51.208;6.418;2022-07-29T13:20:23;3.97;;;2.47;;
36291;SDS011;22327;51.208;6.418;2022-07-29T13:22:52;3.97;;;2.47;;
36291;SDS011;22327;51.208;6.418;2022-07-29T13:25:24;7.07;;;2.30;;
36291;SDS011;22327;51.208;6.418;2022-07-29T13:27:50;3.90;;;2.40;;
36291;SDS011;22327;51.208;6.418;2022-07-29T13:30:16;3.00;;;2.60;;
36291;SDS011;22327;51.208;6.418;2022-07-29T13:32:41;4.60;;;2.10;;
36291;SDS011;22327;51.208;6.418;2022-07-29T13:35:08;3.65;;;2.00;;
36291;SDS011;22327;51.208;6.418;2022-07-29T13:37:34;4.45;;;2.20;;
36291;SDS011;22327;51.208;6.418;2022-07-29T13:40:03;3.58;;;2.00;;
36291;SDS011;22327;51.208;6.418;2022-07-29T13:42:30;2.05;;;1.80;;
36291;SDS011;22327;51.208;6.418;2022-07-29T13:44:56;3.45;;;1.70;;
36291;SDS011;22327;51.208;6.418;2022-07-29T13:47:22;5.65;;;1.80;;
36291;SDS011;22327;51.208;6.418;2022-07-29T13:49:49;3.25;;;1.65;;
36291;SDS011;22327;51.208;6.418;2022-07-29T13:52:14;4.20;;;2.10;;
36291;SDS011;22327;51.208;6.418;2022-07-29T13:54:40;3.28;;;2.22;;
36291;SDS011;22327;51.208;6.418;2022-07-29T13:57:06;5.13;;;2.70;;
36291;SDS011;22327;51.208;6.418;2022-07-29T13:59:32;3.80;;;2.80;;
36291;SDS011;22327;51.208;6.418;2022-07-29T14:01:59;4.72;;;2.28;;
36291;SDS011;22327;51.208;6.418;2022-07-29T14:04:24;6.15;;;2.40;;
36291;SDS011;22327;51.208;6.418;2022-07-29T14:06:50;3.35;;;2.50;;
36291;SDS011;22327;51.208;6.418;2022-07-29T14:09:16;3.92;;;2.35;;
36291;SDS011;22327;51.208;6.418;2022-07-29T14:11:42;4.55;;;2.10;;
36291;SDS011;22327;51.208;6.418;2022-07-29T14:14:08;4.60;;;2.28;;
36291;SDS011;22327;51.208;6.418;2022-07-29T14:16:35;2.67;;;2.45;;
36291;SDS011;22327;51.208;6.418;2022-07-29T14:19:00;3.20;;;2.20;;
36291;SDS011;22327;51.208;6.418;2022-07-29T14:21:26;2.35;;;2.00;;
36291;SDS011;22327;51.208;6.418;2022-07-29T14:23:51;2.88;;;2.00;;
36291;SDS011;22327;51.208;6.418;2022-07-29T14:26:19;5.25;;;2.38;;
36291;SDS011;22327;51.208;6.418;2022-07-29T14:28:45;4.45;;;2.22;;
36291;SDS011;22327;51.208;6.418;2022-07-29T14:31:10;4.72;;;2.08;;
36291;SDS011;22327;51.208;6.418;2022-07-29T14:33:36;3.10;;;2.30;;
36291;SDS011;22327;51.208;6.418;2022-07-29T14:36:02;3.42;;;2.22;;
36291;SDS011;22327;51.208;6.418;2022-07-29T14:38:28;2.85;;;2.13;;
36291;SDS011;22327;51.208;6.418;2022-07-29T14:40:53;2.75;;;2.30;;
36291;SDS011;22327;51.208;6.418;2022-07-29T14:43:19;2.72;;;2.40;;
36291;SDS011;22327;51.208;6.418;2022-07-29T14:45:44;4.53;;;2.72;;
36291;SDS011;22327;51.208;6.418;2022-07-29T14:48:10;3.53;;;2.63;;
36291;SDS011;22327;51.208;6.418;2022-07-29T14:50:36;3.13;;;2.60;;
36291;SDS011;22327;51.208;6.418;2022-07-29T14:53:02;4.50;;;3.53;;
36291;SDS011;22327;51.208;6.418;2022-07-29T14:55:28;3.63;;;2.50;;
36291;SDS011;22327;51.208;6.418;2022-07-29T14:57:54;3.85;;;2.95;;
36291;SDS011;22327;51.208;6.418;2022-07-29T15:00:20;3.65;;;2.75;;
36291;SDS011;22327;51.208;6.418;2022-07-29T15:02:46;5.05;;;3.35;;
36291;SDS011;22327;51.208;6.418;2022-07-29T15:05:12;5.75;;;3.10;;
36291;SDS011;22327;51.208;6.418;2022-07-29T15:07:37;4.95;;;3.60;;
36291;SDS011;22327;51.208;6.418;2022-07-29T15:10:03;4.65;;;3.15;;
36291;SDS011;22327;51.208;6.418;2022-07-29T15:12:29;3.50;;;2.85;;
36291;SDS011;22327;51.208;6.418;2022-07-29T15:14:55;3.60;;;2.60;;
36291;SDS011;22327;51.208;6.418;2022-07-29T15:17:21;4.75;;;2.30;;
36291;SDS011;22327;51.208;6.418;2022-07-29T15:19:46;3.85;;;2.28;;
36291;SDS011;22327;51.208;6.418;2022-07-29T15:22:12;2.95;;;2.20;;
36291;SDS011;22327;51.208;6.418;2022-07-29T15:24:38;4.55;;;2.42;;
36291;SDS011;22327;51.208;6.418;2022-07-29T15:27:03;2.35;;;2.15;;
36291;SDS011;22327;51.208;6.418;2022-07-29T15:29:29;3.65;;;2.10;;
36291;SDS011;22327;51.208;6.418;2022-07-29T15:31:55;3.83;;;2.35;;
36291;SDS011;22327;51.208;6.418;2022-07-29T15:34:20;3.20;;;2.03;;
36291;SDS011;22327;51.208;6.418;2022-07-29T15:36:48;4.05;;;2.40;;
36291;SDS011;22327;51.208;6.418;2022-07-29T15:39:15;3.13;;;1.65;;
36291;SDS011;22327;51.208;6.418;2022-07-29T15:41:40;3.00;;;2.35;;